Time;durP1;ratioP1;P1;durP2;ratioP2;P2;SDS_P1;SDS_P2;PMS_P1;PMS_P2;Temp;Humidity;BMP_temperature;BMP_pressure;BME280_temperature;BME280_humidity;BME280_pressure;Samples;Min_cycle;Max_cycle;Signal;HPM_P1;HPM_P2
2021/10/23 00:00:57;;;;;;;3.08;1.48;;;;;;;;;;5020642;28;20212;-46
2021/10/23 00:03:23;;;;;;;1.73;1.13;;;;;;;;;;5015872;28;20464;-46
2021/10/23 00:05:49;;;;;;;1.63;1.00;;;;;;;;;;5015061;28;20200;-46
2021/10/23 00:08:15;;;;;;;3.22;1.13;;;;;;;;;;5025426;28;20172;-46
2021/10/23 00:10:41;;;;;;;1.38;0.88;;;;;;;;;;5025394;28;20172;-46
2021/10/23 00:13:07;;;;;;;1.65;1.10;;;;;;;;;;5022195;28;20570;-46
2021/10/23 00:15:33;;;;;;;3.30;1.40;;;;;;;;;;5014942;28;20571;-46
2021/10/23 00:18:00;;;;;;;2.63;1.30;;;;;;;;;;5017432;28;21752;-46
2021/10/23 00:20:26;;;;;;;1.77;1.10;;;;;;;;;;5026732;28;20187;-46
2021/10/23 00:22:52;;;;;;;1.75;1.48;;;;;;;;;;5033970;28;20213;-46
2021/10/23 00:25:21;;;;;;;2.17;1.27;;;;;;;;;;5033737;28;20200;-46
2021/10/23 00:27:47;;;;;;;2.58;1.35;;;;;;;;;;5021704;28;20266;-46
2021/10/23 00:30:14;;;;;;;2.22;1.33;;;;;;;;;;5033067;28;20184;-47
2021/10/23 00:32:40;;;;;;;1.83;1.30;;;;;;;;;;5022500;28;20422;-46
2021/10/23 00:35:07;;;;;;;3.85;1.35;;;;;;;;;;5014334;28;20432;-46
2021/10/23 00:37:33;;;;;;;3.40;1.30;;;;;;;;;;5033265;28;20637;-46
2021/10/23 00:39:59;;;;;;;3.38;1.30;;;;;;;;;;5016300;28;20192;-46
2021/10/23 00:42:25;;;;;;;3.90;1.60;;;;;;;;;;5032575;28;20478;-46
2021/10/23 00:44:51;;;;;;;2.00;1.33;;;;;;;;;;5030699;28;20234;-46
2021/10/23 00:47:19;;;;;;;1.95;1.30;;;;;;;;;;5033495;28;20271;-46
2021/10/23 00:49:47;;;;;;;2.35;1.35;;;;;;;;;;5033867;28;20199;-46
2021/10/23 00:52:13;;;;;;;2.05;1.00;;;;;;;;;;5034159;28;20191;-46
2021/10/23 00:54:39;;;;;;;3.75;1.38;;;;;;;;;;5027403;28;20225;-46
2021/10/23 00:57:06;;;;;;;3.00;1.17;;;;;;;;;;5024899;28;20690;-46
2021/10/23 00:59:33;;;;;;;2.00;1.45;;;;;;;;;;5027917;28;20579;-46
2021/10/23 01:01:59;;;;;;;3.85;1.65;;;;;;;;;;5022734;28;20266;-46
2021/10/23 01:04:25;;;;;;;1.92;1.02;;;;;;;;;;5029392;28;20183;-46
2021/10/23 01:06:52;;;;;;;5.18;1.33;;;;;;;;;;5022372;28;20237;-46
2021/10/23 01:09:18;;;;;;;2.63;1.20;;;;;;;;;;5032378;28;20562;-46
2021/10/23 01:11:45;;;;;;;2.38;1.20;;;;;;;;;;5014523;28;20196;-46
2021/10/23 01:14:18;;;;;;;2.60;1.27;;;;;;;;;;5021763;28;20537;-46
2021/10/23 01:16:45;;;;;;;4.32;1.23;;;;;;;;;;5021517;28;20567;-46
2021/10/23 01:19:12;;;;;;;4.50;1.40;;;;;;;;;;5024596;28;20184;-46
2021/10/23 01:21:39;;;;;;;6.30;1.40;;;;;;;;;;5020510;28;20451;-46
2021/10/23 01:24:05;;;;;;;2.80;1.23;;;;;;;;;;5015882;28;20177;-46
2021/10/23 01:26:31;;;;;;;3.67;1.48;;;;;;;;;;5015311;28;20211;-46
2021/10/23 01:28:58;;;;;;;3.00;1.25;;;;;;;;;;5022219;28;20177;-46
2021/10/23 01:31:27;;;;;;;4.30;1.20;;;;;;;;;;5028139;28;20187;-46
2021/10/23 01:33:52;;;;;;;3.45;1.30;;;;;;;;;;5033263;28;20175;-47
2021/10/23 01:36:19;;;;;;;4.43;1.15;;;;;;;;;;5017727;28;20195;-46
2021/10/23 01:38:45;;;;;;;3.40;1.33;;;;;;;;;;5022989;28;20209;-46
2021/10/23 01:41:11;;;;;;;3.05;0.95;;;;;;;;;;5037740;28;20434;-46
2021/10/23 01:43:37;;;;;;;4.00;1.33;;;;;;;;;;5035606;28;20180;-46
2021/10/23 01:46:04;;;;;;;2.38;1.20;;;;;;;;;;5037294;28;20292;-46
2021/10/23 01:48:30;;;;;;;3.72;1.30;;;;;;;;;;5028292;28;20182;-46
2021/10/23 01:50:56;;;;;;;2.45;0.90;;;;;;;;;;5017745;28;20259;-46
2021/10/23 01:53:23;;;;;;;2.90;1.23;;;;;;;;;;5032498;28;20215;-46
2021/10/23 01:55:51;;;;;;;3.25;1.10;;;;;;;;;;5027803;28;20191;-46
2021/10/23 01:58:17;;;;;;;3.95;0.90;;;;;;;;;;5028775;28;20559;-46
2021/10/23 02:00:43;;;;;;;3.92;1.27;;;;;;;;;;5034031;28;20294;-46
2021/10/23 02:03:09;;;;;;;1.63;1.00;;;;;;;;;;5027126;28;20265;-46
2021/10/23 02:05:35;;;;;;;4.82;1.10;;;;;;;;;;5036021;28;20239;-46
2021/10/23 02:08:01;;;;;;;3.97;1.02;;;;;;;;;;5026517;28;20192;-46
2021/10/23 02:10:27;;;;;;;2.15;1.15;;;;;;;;;;5024696;28;20184;-46
2021/10/23 02:12:53;;;;;;;3.08;1.13;;;;;;;;;;5025823;28;20182;-46
2021/10/23 02:15:19;;;;;;;2.58;1.05;;;;;;;;;;5030875;28;20184;-46
2021/10/23 02:17:45;;;;;;;2.78;1.40;;;;;;;;;;5022421;28;20190;-46
2021/10/23 02:20:12;;;;;;;3.25;1.25;;;;;;;;;;5028515;28;20192;-46
2021/10/23 02:22:38;;;;;;;4.55;1.45;;;;;;;;;;5017220;28;20191;-46
2021/10/23 02:25:05;;;;;;;5.40;1.33;;;;;;;;;;5019948;28;20203;-46
2021/10/23 02:27:31;;;;;;;4.43;1.20;;;;;;;;;;5023077;28;20198;-46
2021/10/23 02:29:57;;;;;;;4.35;1.50;;;;;;;;;;5030595;28;20204;-46
2021/10/23 02:32:23;;;;;;;4.97;1.10;;;;;;;;;;5024791;28;20180;-46
2021/10/23 02:34:49;;;;;;;3.40;0.93;;;;;;;;;;5032996;28;20191;-46
2021/10/23 02:37:15;;;;;;;4.03;1.25;;;;;;;;;;5020751;28;20176;-46
2021/10/23 02:39:41;;;;;;;3.83;1.17;;;;;;;;;;5020779;28;20267;-45
2021/10/23 02:42:07;;;;;;;2.88;1.15;;;;;;;;;;5016835;28;20181;-46
2021/10/23 02:44:34;;;;;;;1.92;0.80;;;;;;;;;;5016045;28;20192;-46
2021/10/23 02:47:00;;;;;;;2.80;1.00;;;;;;;;;;5014626;28;20212;-46
2021/10/23 02:49:26;;;;;;;4.93;1.40;;;;;;;;;;5034448;28;20271;-46
2021/10/23 02:51:52;;;;;;;3.22;1.05;;;;;;;;;;5035371;28;20179;-46
2021/10/23 02:54:18;;;;;;;1.58;0.98;;;;;;;;;;5027843;28;20510;-46
2021/10/23 02:56:44;;;;;;;3.00;1.30;;;;;;;;;;5020718;28;20183;-46
2021/10/23 02:59:10;;;;;;;2.85;1.10;;;;;;;;;;5025284;28;20198;-46
2021/10/23 03:01:36;;;;;;;5.50;1.30;;;;;;;;;;5028233;28;20227;-46
2021/10/23 03:04:02;;;;;;;2.35;1.38;;;;;;;;;;5023452;28;20171;-46
2021/10/23 03:06:28;;;;;;;5.13;1.20;;;;;;;;;;5019638;28;20204;-46
2021/10/23 03:08:54;;;;;;;3.53;0.90;;;;;;;;;;5016301;28;20239;-46
2021/10/23 03:11:20;;;;;;;2.10;1.02;;;;;;;;;;5033784;28;20176;-46
2021/10/23 03:13:46;;;;;;;3.17;1.10;;;;;;;;;;5029694;28;20176;-46
2021/10/23 03:16:12;;;;;;;3.50;1.10;;;;;;;;;;5021466;28;20226;-46
2021/10/23 03:18:38;;;;;;;3.30;1.30;;;;;;;;;;5027826;28;20184;-46
2021/10/23 03:21:05;;;;;;;3.28;1.23;;;;;;;;;;5019461;28;20199;-46
2021/10/23 03:23:31;;;;;;;4.25;1.05;;;;;;;;;;5035135;28;20176;-46
2021/10/23 03:25:57;;;;;;;5.95;1.42;;;;;;;;;;5017384;28;20460;-46
2021/10/23 03:28:23;;;;;;;2.03;0.90;;;;;;;;;;5021245;28;20187;-46
2021/10/23 03:30:49;;;;;;;2.53;1.10;;;;;;;;;;5017462;28;20169;-46
2021/10/23 03:33:15;;;;;;;3.72;1.10;;;;;;;;;;5015277;28;20180;-46
2021/10/23 03:35:41;;;;;;;4.68;1.17;;;;;;;;;;5030677;28;20190;-46
2021/10/23 03:38:08;;;;;;;2.95;1.20;;;;;;;;;;5025435;28;20266;-46
2021/10/23 03:40:34;;;;;;;1.92;0.98;;;;;;;;;;5017034;28;20579;-46
2021/10/23 03:43:00;;;;;;;4.57;1.15;;;;;;;;;;5032336;28;20208;-46
2021/10/23 03:45:26;;;;;;;3.20;1.20;;;;;;;;;;5033852;28;20213;-46
2021/10/23 03:47:52;;;;;;;3.75;1.35;;;;;;;;;;5028608;28;20188;-46
2021/10/23 03:50:18;;;;;;;1.88;0.80;;;;;;;;;;5035326;28;20168;-46
2021/10/23 03:52:45;;;;;;;7.72;1.25;;;;;;;;;;5033956;28;20257;-46
2021/10/23 03:55:11;;;;;;;2.90;1.20;;;;;;;;;;5023980;28;20271;-46
2021/10/23 03:57:37;;;;;;;5.35;1.45;;;;;;;;;;5025627;28;20172;-46
2021/10/23 04:00:04;;;;;;;2.22;1.10;;;;;;;;;;5015415;28;20164;-46
2021/10/23 04:02:31;;;;;;;4.07;1.00;;;;;;;;;;5021202;28;20306;-46
2021/10/23 04:04:57;;;;;;;4.57;1.50;;;;;;;;;;5022453;28;20184;-46
2021/10/23 04:07:23;;;;;;;3.28;1.33;;;;;;;;;;5015291;28;20204;-46
2021/10/23 04:09:49;;;;;;;3.28;1.20;;;;;;;;;;5017255;28;20176;-46
2021/10/23 04:12:15;;;;;;;3.20;0.98;;;;;;;;;;5031590;28;20219;-46
2021/10/23 04:14:41;;;;;;;2.15;1.08;;;;;;;;;;5024282;28;20607;-46
2021/10/23 04:17:07;;;;;;;7.07;1.58;;;;;;;;;;5032662;28;20195;-46
2021/10/23 04:19:33;;;;;;;2.92;1.02;;;;;;;;;;5034039;28;20237;-46
2021/10/23 04:22:00;;;;;;;3.33;1.27;;;;;;;;;;5035097;28;20588;-46
2021/10/23 04:24:26;;;;;;;4.15;1.25;;;;;;;;;;5032975;28;20202;-46
2021/10/23 04:26:53;;;;;;;3.58;1.33;;;;;;;;;;5030485;28;20239;-46
2021/10/23 04:29:21;;;;;;;3.70;1.30;;;;;;;;;;5015785;28;20208;-46
2021/10/23 04:31:47;;;;;;;2.25;1.30;;;;;;;;;;5015035;28;20176;-46
2021/10/23 04:34:14;;;;;;;3.53;1.30;;;;;;;;;;5030990;28;20199;-46
2021/10/23 04:36:41;;;;;;;4.53;1.42;;;;;;;;;;5034873;28;20445;-46
2021/10/23 04:39:07;;;;;;;5.15;1.40;;;;;;;;;;5024357;28;20191;-46
2021/10/23 04:41:33;;;;;;;4.10;1.20;;;;;;;;;;5023340;28;20867;-46
2021/10/23 04:43:59;;;;;;;3.60;0.95;;;;;;;;;;5030709;28;20203;-46
2021/10/23 04:46:25;;;;;;;4.72;1.30;;;;;;;;;;5021186;28;20211;-46
2021/10/23 04:48:51;;;;;;;3.97;1.38;;;;;;;;;;5027286;28;20187;-46
2021/10/23 04:51:17;;;;;;;3.92;1.30;;;;;;;;;;5034140;28;20549;-46
2021/10/23 04:53:43;;;;;;;4.38;1.40;;;;;;;;;;5018434;28;20172;-46
2021/10/23 04:56:09;;;;;;;3.80;1.25;;;;;;;;;;5024557;28;20195;-46
2021/10/23 04:58:38;;;;;;;3.42;1.20;;;;;;;;;;5033675;28;20188;-46
2021/10/23 05:01:04;;;;;;;5.53;1.45;;;;;;;;;;5032293;28;20229;-46
2021/10/23 05:03:30;;;;;;;2.50;1.13;;;;;;;;;;5024730;28;20180;-46
2021/10/23 05:05:57;;;;;;;3.10;1.40;;;;;;;;;;5015830;28;20291;-46
2021/10/23 05:08:23;;;;;;;4.60;1.33;;;;;;;;;;5025260;28;20260;-46
2021/10/23 05:10:49;;;;;;;7.03;1.45;;;;;;;;;;5027001;28;20192;-46
2021/10/23 05:13:15;;;;;;;4.32;1.45;;;;;;;;;;5029198;28;20179;-46
2021/10/23 05:15:41;;;;;;;2.58;0.95;;;;;;;;;;5033292;28;20191;-46
2021/10/23 05:18:07;;;;;;;4.22;1.38;;;;;;;;;;5018419;28;20188;-46
2021/10/23 05:20:33;;;;;;;3.53;1.05;;;;;;;;;;5019480;28;20188;-46
2021/10/23 05:22:59;;;;;;;3.65;1.40;;;;;;;;;;5017788;28;20567;-46
2021/10/23 05:25:25;;;;;;;4.82;1.50;;;;;;;;;;5019988;28;20251;-46
2021/10/23 05:27:51;;;;;;;2.90;0.93;;;;;;;;;;5018459;28;20300;-46
2021/10/23 05:30:17;;;;;;;4.70;1.25;;;;;;;;;;5018186;28;20425;-46
2021/10/23 05:32:43;;;;;;;4.47;1.27;;;;;;;;;;5025761;28;20306;-46
2021/10/23 05:35:10;;;;;;;4.25;1.60;;;;;;;;;;5023506;28;20595;-46
2021/10/23 05:37:37;;;;;;;5.72;2.28;;;;;;;;;;5024793;28;20478;-46
2021/10/23 05:40:03;;;;;;;5.43;2.92;;;;;;;;;;5020497;28;20443;-46
2021/10/23 05:42:29;;;;;;;6.07;3.30;;;;;;;;;;5018916;28;20531;-45
2021/10/23 05:44:55;;;;;;;6.80;3.60;;;;;;;;;;5017990;28;20184;-46
2021/10/23 05:47:21;;;;;;;5.47;3.00;;;;;;;;;;5033495;28;20257;-46
2021/10/23 05:49:47;;;;;;;5.40;2.80;;;;;;;;;;5034533;28;20221;-46
2021/10/23 05:52:13;;;;;;;7.35;3.17;;;;;;;;;;5037275;28;20186;-46
2021/10/23 05:54:39;;;;;;;5.95;2.60;;;;;;;;;;5017935;28;20791;-46
2021/10/23 05:57:06;;;;;;;4.10;2.65;;;;;;;;;;5018555;28;20180;-46
2021/10/23 05:59:32;;;;;;;4.85;2.40;;;;;;;;;;5017670;28;20220;-46
2021/10/23 06:02:09;;;;;;;3.25;2.20;;;;;;;;;;5017340;28;20476;-46
2021/10/23 06:04:36;;;;;;;5.03;2.45;;;;;;;;;;5016924;28;20183;-46
2021/10/23 06:07:04;;;;;;;5.05;2.30;;;;;;;;;;5017786;28;20204;-46
2021/10/23 06:09:30;;;;;;;4.72;2.28;;;;;;;;;;5035453;28;20179;-46
2021/10/23 06:12:00;;;;;;;3.83;2.20;;;;;;;;;;5022732;28;20246;-46
2021/10/23 06:14:26;;;;;;;4.75;2.42;;;;;;;;;;5023263;28;20172;-46
2021/10/23 06:16:52;;;;;;;3.97;2.30;;;;;;;;;;5016959;28;20196;-46
2021/10/23 06:19:18;;;;;;;2.05;1.88;;;;;;;;;;5017386;28;20176;-46
2021/10/23 06:21:44;;;;;;;5.50;2.45;;;;;;;;;;5017953;28;20226;-46
2021/10/23 06:24:09;;;;;;;3.40;2.25;;;;;;;;;;5016507;28;20196;-46
2021/10/23 06:26:35;;;;;;;3.75;1.90;;;;;;;;;;5016912;28;20211;-46
2021/10/23 06:29:02;;;;;;;3.10;2.15;;;;;;;;;;5024916;28;20481;-46
2021/10/23 06:31:28;;;;;;;4.90;1.73;;;;;;;;;;5023043;28;20191;-46
2021/10/23 06:33:54;;;;;;;6.53;1.95;;;;;;;;;;5026449;28;20175;-46
2021/10/23 06:36:20;;;;;;;5.68;1.92;;;;;;;;;;5022269;28;20239;-46
2021/10/23 06:38:46;;;;;;;9.35;2.00;;;;;;;;;;5026280;28;20546;-46
2021/10/23 06:41:12;;;;;;;4.72;1.63;;;;;;;;;;5016839;28;20169;-46
2021/10/23 06:43:38;;;;;;;4.47;1.92;;;;;;;;;;5016135;28;20271;-46
2021/10/23 06:46:04;;;;;;;4.57;1.85;;;;;;;;;;5028951;28;20595;-46
2021/10/23 06:48:30;;;;;;;5.55;2.10;;;;;;;;;;5035652;28;20188;-48
2021/10/23 06:50:56;;;;;;;5.18;1.60;;;;;;;;;;5036321;28;20160;-46
2021/10/23 06:53:22;;;;;;;6.63;1.85;;;;;;;;;;5021940;28;20420;-46
2021/10/23 06:55:48;;;;;;;6.10;2.05;;;;;;;;;;5017570;28;20192;-46
2021/10/23 06:58:14;;;;;;;3.88;1.67;;;;;;;;;;5028677;28;20570;-46
2021/10/23 07:00:40;;;;;;;6.15;1.98;;;;;;;;;;5035646;28;20183;-46
2021/10/23 07:03:06;;;;;;;3.40;1.63;;;;;;;;;;5032012;28;20474;-45
2021/10/23 07:05:32;;;;;;;5.90;1.88;;;;;;;;;;5025494;28;20200;-46
2021/10/23 07:07:59;;;;;;;8.57;2.00;;;;;;;;;;5017186;28;20230;-46
2021/10/23 07:10:25;;;;;;;7.45;1.95;;;;;;;;;;5026876;28;20493;-46
2021/10/23 07:12:51;;;;;;;6.05;1.80;;;;;;;;;;5034744;28;20172;-46
2021/10/23 07:15:17;;;;;;;9.55;2.05;;;;;;;;;;5035642;28;20160;-46
2021/10/23 07:17:43;;;;;;;7.85;2.25;;;;;;;;;;5032525;28;20227;-46
2021/10/23 07:20:10;;;;;;;10.45;2.40;;;;;;;;;;5028666;28;20180;-46
2021/10/23 07:22:36;;;;;;;11.23;2.38;;;;;;;;;;5029417;28;20180;-46
2021/10/23 07:25:03;;;;;;;6.05;1.60;;;;;;;;;;5034912;28;20310;-46
2021/10/23 07:27:29;;;;;;;4.78;1.60;;;;;;;;;;5028879;28;20389;-45
2021/10/23 07:29:55;;;;;;;4.55;1.92;;;;;;;;;;5032794;28;20654;-46
2021/10/23 07:32:21;;;;;;;4.82;1.45;;;;;;;;;;5021593;28;20199;-46
2021/10/23 07:34:47;;;;;;;2.88;1.63;;;;;;;;;;5019476;28;20180;-46
2021/10/23 07:37:13;;;;;;;5.90;1.42;;;;;;;;;;5019430;28;20483;-46
2021/10/23 07:39:39;;;;;;;7.25;1.70;;;;;;;;;;5035583;28;20183;-46
2021/10/23 07:42:05;;;;;;;8.07;1.55;;;;;;;;;;5016885;28;20219;-46
2021/10/23 07:44:31;;;;;;;5.55;1.50;;;;;;;;;;5034257;28;20222;-46
2021/10/23 07:46:57;;;;;;;3.35;1.30;;;;;;;;;;5034466;28;20257;-46
2021/10/23 07:49:23;;;;;;;4.85;1.63;;;;;;;;;;5034929;28;20211;-46
2021/10/23 07:51:49;;;;;;;2.72;1.95;;;;;;;;;;5034677;28;20613;-46
2021/10/23 07:54:15;;;;;;;3.95;1.90;;;;;;;;;;5033430;28;20184;-46
2021/10/23 07:56:41;;;;;;;2.30;1.17;;;;;;;;;;5015235;28;20267;-46
2021/10/23 07:59:07;;;;;;;2.45;1.38;;;;;;;;;;5015382;28;20189;-46
2021/10/23 08:01:33;;;;;;;5.28;1.42;;;;;;;;;;5017417;28;20636;-46
2021/10/23 08:03:59;;;;;;;4.15;1.40;;;;;;;;;;5033369;28;20211;-46
2021/10/23 08:06:25;;;;;;;4.15;1.30;;;;;;;;;;5032488;28;20199;-46
2021/10/23 08:08:51;;;;;;;3.08;1.27;;;;;;;;;;5024316;28;20582;-46
2021/10/23 08:11:17;;;;;;;5.03;1.35;;;;;;;;;;5015168;28;20188;-46
2021/10/23 08:13:43;;;;;;;5.78;1.45;;;;;;;;;;5030696;28;20184;-46
2021/10/23 08:16:09;;;;;;;2.58;1.20;;;;;;;;;;5034778;28;20188;-46
2021/10/23 08:18:35;;;;;;;2.88;1.35;;;;;;;;;;5023993;28;20210;-46
2021/10/23 08:21:01;;;;;;;4.32;1.40;;;;;;;;;;5034649;28;20164;-46
2021/10/23 08:23:28;;;;;;;3.05;1.17;;;;;;;;;;5033427;28;20625;-46
2021/10/23 08:25:54;;;;;;;2.30;1.10;;;;;;;;;;5034396;28;20204;-46
2021/10/23 08:28:22;;;;;;;4.18;1.17;;;;;;;;;;5027314;28;20223;-46
2021/10/23 08:30:48;;;;;;;5.13;1.33;;;;;;;;;;5015054;28;20195;-45
2021/10/23 08:33:14;;;;;;;2.65;1.10;;;;;;;;;;5026188;28;20183;-46
2021/10/23 08:35:40;;;;;;;4.28;1.20;;;;;;;;;;5032863;28;20188;-46
2021/10/23 08:38:06;;;;;;;2.95;1.23;;;;;;;;;;5028104;28;20501;-46
2021/10/23 08:40:32;;;;;;;1.90;1.17;;;;;;;;;;5028254;28;20271;-46
2021/10/23 08:42:58;;;;;;;3.05;1.25;;;;;;;;;;5014267;28;20192;-46
2021/10/23 08:45:24;;;;;;;4.22;1.10;;;;;;;;;;5013778;28;20568;-46
2021/10/23 08:47:50;;;;;;;2.92;1.52;;;;;;;;;;5030086;28;20176;-46
2021/10/23 08:50:18;;;;;;;2.00;1.30;;;;;;;;;;5034396;28;20179;-46
2021/10/23 08:52:45;;;;;;;2.70;1.02;;;;;;;;;;5031882;28;20211;-47
2021/10/23 08:55:12;;;;;;;2.50;1.10;;;;;;;;;;5034105;28;20174;-47
2021/10/23 08:57:37;;;;;;;2.15;1.20;;;;;;;;;;5026821;28;20360;-46
2021/10/23 09:00:04;;;;;;;2.22;1.20;;;;;;;;;;5014776;28;20536;-46
2021/10/23 09:02:31;;;;;;;2.00;1.08;;;;;;;;;;5027838;28;20199;-47
2021/10/23 09:04:57;;;;;;;2.08;1.10;;;;;;;;;;5026215;28;20177;-46
2021/10/23 09:07:23;;;;;;;2.53;1.10;;;;;;;;;;5019776;28;20211;-46
2021/10/23 09:09:51;;;;;;;2.08;1.33;;;;;;;;;;5026780;28;20200;-47
2021/10/23 09:12:25;;;;;;;3.83;1.30;;;;;;;;;;5014250;28;20567;-46
2021/10/23 09:14:57;;;;;;;2.50;1.00;;;;;;;;;;5013906;28;20192;-46
2021/10/23 09:17:23;;;;;;;3.17;1.30;;;;;;;;;;5014754;28;20465;-46
2021/10/23 09:19:50;;;;;;;1.40;1.05;;;;;;;;;;5014852;28;20199;-46
2021/10/23 09:22:34;;;;;;;1.83;1.00;;;;;;;;;;5026238;28;20225;-46
2021/10/23 09:25:16;;;;;;;1.60;0.90;;;;;;;;;;5013667;28;20611;-47
2021/10/23 09:27:50;;;;;;;1.58;1.00;;;;;;;;;;5032851;28;20187;-46
2021/10/23 09:30:17;;;;;;;1.20;1.00;;;;;;;;;;5027811;28;20176;-46
2021/10/23 09:32:49;;;;;;;3.05;1.10;;;;;;;;;;5019550;28;20299;-46
2021/10/23 09:35:16;;;;;;;2.33;1.17;;;;;;;;;;5027520;28;20204;-46
2021/10/23 09:37:44;;;;;;;1.63;0.82;;;;;;;;;;5015431;28;20462;-46
2021/10/23 09:40:11;;;;;;;2.13;1.10;;;;;;;;;;5014669;28;20169;-46
2021/10/23 09:42:37;;;;;;;1.48;1.10;;;;;;;;;;5019486;28;20179;-46
2021/10/23 09:45:04;;;;;;;2.40;1.00;;;;;;;;;;5033594;28;20172;-46
2021/10/23 09:47:32;;;;;;;1.70;1.17;;;;;;;;;;5026831;28;20208;-47
2021/10/23 09:50:05;;;;;;;3.72;1.42;;;;;;;;;;5030296;28;20183;-46
2021/10/23 09:52:33;;;;;;;2.10;1.00;;;;;;;;;;5020599;28;20259;-46
2021/10/23 09:55:07;;;;;;;1.58;1.00;;;;;;;;;;5033277;28;20205;-46
2021/10/23 09:57:33;;;;;;;1.42;1.05;;;;;;;;;;5028946;28;20207;-46
2021/10/23 10:00:09;;;;;;;1.58;0.98;;;;;;;;;;5026633;28;20175;-46
2021/10/23 10:02:37;;;;;;;1.92;0.82;;;;;;;;;;5017687;28;20602;-46
2021/10/23 10:05:03;;;;;;;1.92;0.93;;;;;;;;;;5016901;28;20187;-46
2021/10/23 10:07:29;;;;;;;1.40;1.00;;;;;;;;;;5023075;28;20238;-46
2021/10/23 10:09:55;;;;;;;1.05;0.88;;;;;;;;;;5030847;28;20169;-47
2021/10/23 10:12:21;;;;;;;2.17;1.00;;;;;;;;;;5022480;28;20222;-46
2021/10/23 10:14:48;;;;;;;1.55;0.90;;;;;;;;;;5016032;28;20468;-46
2021/10/23 10:17:14;;;;;;;2.38;1.00;;;;;;;;;;5022258;28;20601;-46
2021/10/23 10:19:40;;;;;;;1.42;0.88;;;;;;;;;;5030089;28;20287;-46
2021/10/23 10:22:08;;;;;;;1.80;0.90;;;;;;;;;;5017457;28;20244;-46
2021/10/23 10:24:35;;;;;;;1.92;1.05;;;;;;;;;;5026284;28;20586;-46
2021/10/23 10:27:10;;;;;;;1.50;0.80;;;;;;;;;;5034095;28;20296;-46
2021/10/23 10:29:59;;;;;;;1.00;0.73;;;;;;;;;;5026426;28;20608;-46
2021/10/23 10:32:39;;;;;;;1.92;1.15;;;;;;;;;;5036113;28;20172;-46
2021/10/23 10:40:17;;;;;;;1.48;0.70;;;;;;;;;;5036838;28;20186;-47
2021/10/23 10:42:53;;;;;;;1.55;1.10;;;;;;;;;;5028517;28;20180;-47
2021/10/23 10:45:53;;;;;;;1.88;0.90;;;;;;;;;;5016584;28;20259;-46
2021/10/23 10:48:26;;;;;;;2.70;1.00;;;;;;;;;;5025671;28;20189;-46
2021/10/23 10:50:58;;;;;;;1.38;1.10;;;;;;;;;;5023739;28;20180;-46
2021/10/23 10:53:24;;;;;;;1.13;0.80;;;;;;;;;;5016446;28;20180;-47
2021/10/23 10:55:55;;;;;;;2.03;1.13;;;;;;;;;;5016271;28;20168;-46
2021/10/23 10:58:39;;;;;;;1.45;0.90;;;;;;;;;;5032899;28;20186;-47
2021/10/23 11:01:09;;;;;;;1.05;0.88;;;;;;;;;;5021210;28;20576;-46
2021/10/23 11:03:36;;;;;;;1.67;0.70;;;;;;;;;;5030245;28;20436;-47
2021/10/23 11:06:21;;;;;;;0.88;0.75;;;;;;;;;;5035973;28;20192;-47
2021/10/23 11:08:47;;;;;;;1.17;0.95;;;;;;;;;;5028823;28;20164;-47
2021/10/23 11:11:13;;;;;;;1.42;0.90;;;;;;;;;;5021409;28;20203;-46
2021/10/23 11:13:43;;;;;;;1.25;0.73;;;;;;;;;;5019071;28;20188;-47
2021/10/23 11:16:28;;;;;;;1.20;0.82;;;;;;;;;;5032143;28;20297;-47
2021/10/23 11:18:55;;;;;;;0.95;0.88;;;;;;;;;;5034940;28;20180;-47
2021/10/23 11:21:21;;;;;;;1.70;0.95;;;;;;;;;;5035161;28;20195;-46
2021/10/23 11:23:53;;;;;;;2.47;0.60;;;;;;;;;;5032453;28;20203;-46
2021/10/23 11:26:20;;;;;;;1.17;0.70;;;;;;;;;;5034710;28;20210;-47
2021/10/23 11:28:46;;;;;;;1.10;0.70;;;;;;;;;;5028335;28;20179;-46
2021/10/23 11:31:22;;;;;;;2.83;0.90;;;;;;;;;;5032463;28;20179;-47
2021/10/23 11:33:48;;;;;;;2.05;0.90;;;;;;;;;;5035239;28;20167;-47
2021/10/23 11:36:16;;;;;;;1.10;0.73;;;;;;;;;;5035385;28;20706;-46
2021/10/23 11:38:42;;;;;;;1.95;0.95;;;;;;;;;;5030392;28;20175;-47
2021/10/23 11:41:08;;;;;;;1.58;0.90;;;;;;;;;;5033816;28;20223;-46
2021/10/23 11:43:38;;;;;;;3.75;1.63;;;;;;;;;;5033407;28;20207;-47
2021/10/23 11:46:06;;;;;;;6.50;1.92;;;;;;;;;;5034930;28;20207;-47
2021/10/23 11:48:32;;;;;;;6.85;1.90;;;;;;;;;;5034375;28;20459;-47
2021/10/23 11:50:58;;;;;;;7.75;2.38;;;;;;;;;;5035156;28;20168;-46
2021/10/23 11:53:25;;;;;;;7.72;2.83;;;;;;;;;;5028751;28;20269;-47
2021/10/23 11:55:55;;;;;;;12.40;3.42;;;;;;;;;;5033421;28;20272;-47
2021/10/23 11:58:26;;;;;;;17.83;3.95;;;;;;;;;;5032088;28;20190;-47
2021/10/23 12:00:59;;;;;;;13.18;4.18;;;;;;;;;;5035071;28;20186;-46
2021/10/23 12:03:29;;;;;;;21.35;5.35;;;;;;;;;;5033843;28;20211;-47
2021/10/23 12:05:56;;;;;;;13.98;5.20;;;;;;;;;;5034874;28;20484;-46
2021/10/23 12:08:30;;;;;;;16.90;5.95;;;;;;;;;;5032973;28;20176;-46
2021/10/23 12:11:01;;;;;;;17.42;5.88;;;;;;;;;;5020116;28;20219;-46
2021/10/23 12:13:28;;;;;;;22.55;5.28;;;;;;;;;;5029978;28;20257;-46
2021/10/23 12:16:10;;;;;;;21.60;6.30;;;;;;;;;;5027213;28;20512;-46
2021/10/23 12:18:37;;;;;;;18.52;6.07;;;;;;;;;;5029603;28;20194;-47
2021/10/23 12:21:29;;;;;;;16.35;6.10;;;;;;;;;;5021718;28;20255;-47
2021/10/23 12:23:56;;;;;;;18.65;5.90;;;;;;;;;;5013597;28;20233;-46
2021/10/23 12:26:28;;;;;;;20.50;6.15;;;;;;;;;;5014763;28;20197;-46
2021/10/23 12:29:05;;;;;;;17.63;5.20;;;;;;;;;;5015016;28;20479;-46
2021/10/23 12:31:50;;;;;;;14.57;4.97;;;;;;;;;;5020337;28;20194;-47
2021/10/23 12:34:16;;;;;;;17.48;5.78;;;;;;;;;;5014480;28;20205;-47
2021/10/23 12:36:51;;;;;;;20.92;5.88;;;;;;;;;;5014804;28;20180;-47
2021/10/23 12:39:18;;;;;;;17.58;5.10;;;;;;;;;;5014996;28;20252;-47
2021/10/23 12:41:45;;;;;;;18.70;5.82;;;;;;;;;;5014912;28;20555;-46
2021/10/23 12:44:23;;;;;;;22.25;5.63;;;;;;;;;;5021285;28;20191;-46
2021/10/23 12:46:49;;;;;;;14.27;5.80;;;;;;;;;;5023711;28;20203;-47
2021/10/23 12:49:15;;;;;;;14.75;5.40;;;;;;;;;;5028363;28;20206;-47
2021/10/23 12:51:42;;;;;;;13.27;5.22;;;;;;;;;;5021687;28;20267;-47
2021/10/23 12:54:08;;;;;;;16.80;4.72;;;;;;;;;;5014701;28;20215;-47
2021/10/23 12:56:35;;;;;;;12.77;4.40;;;;;;;;;;5022007;28;20185;-47
2021/10/23 12:59:00;;;;;;;14.43;4.97;;;;;;;;;;5024400;28;20184;-46
2021/10/23 13:01:27;;;;;;;17.08;5.97;;;;;;;;;;5023998;28;20200;-47
2021/10/23 13:03:53;;;;;;;12.18;4.70;;;;;;;;;;5023937;28;20254;-46
2021/10/23 13:06:20;;;;;;;10.68;4.60;;;;;;;;;;5020594;28;20296;-47
2021/10/23 13:08:46;;;;;;;13.88;5.20;;;;;;;;;;5019585;28;20647;-46
2021/10/23 13:11:12;;;;;;;12.10;4.28;;;;;;;;;;5019931;28;20183;-47
2021/10/23 13:13:40;;;;;;;14.10;4.50;;;;;;;;;;5018149;28;20559;-47
2021/10/23 13:16:07;;;;;;;12.45;4.28;;;;;;;;;;5029109;28;20247;-47
2021/10/23 13:18:37;;;;;;;11.63;4.60;;;;;;;;;;5016687;28;20184;-47
2021/10/23 13:21:03;;;;;;;13.70;4.70;;;;;;;;;;5034499;28;20218;-47
2021/10/23 13:23:29;;;;;;;13.18;4.53;;;;;;;;;;5027837;28;20262;-47
2021/10/23 13:25:56;;;;;;;18.35;4.30;;;;;;;;;;5034358;28;20546;-46
2021/10/23 13:28:22;;;;;;;13.50;4.53;;;;;;;;;;5017733;28;20181;-47
2021/10/23 13:30:48;;;;;;;7.78;3.45;;;;;;;;;;5017258;28;20180;-46
2021/10/23 13:33:14;;;;;;;9.82;3.47;;;;;;;;;;5024791;28;20184;-47
2021/10/23 13:35:40;;;;;;;11.32;3.83;;;;;;;;;;5018952;28;20181;-47
2021/10/23 13:38:06;;;;;;;12.40;3.63;;;;;;;;;;5018698;28;20176;-46
2021/10/23 13:40:32;;;;;;;12.35;3.53;;;;;;;;;;5018398;28;20191;-47
2021/10/23 13:42:58;;;;;;;11.15;3.95;;;;;;;;;;5022007;28;20176;-47
2021/10/23 13:45:25;;;;;;;9.90;3.70;;;;;;;;;;5017664;28;20227;-47
2021/10/23 13:47:51;;;;;;;11.80;3.90;;;;;;;;;;5027790;28;20250;-47
2021/10/23 13:50:17;;;;;;;9.63;3.20;;;;;;;;;;5037690;28;20213;-47
2021/10/23 13:52:43;;;;;;;11.65;3.72;;;;;;;;;;5037027;28;20183;-47
2021/10/23 13:55:10;;;;;;;7.95;3.33;;;;;;;;;;5032130;28;20176;-47
2021/10/23 13:57:36;;;;;;;6.05;2.70;;;;;;;;;;5024596;28;20746;-47
2021/10/23 14:00:01;;;;;;;9.73;4.00;;;;;;;;;;5035612;28;20171;-47
2021/10/23 14:02:27;;;;;;;10.45;3.45;;;;;;;;;;5017208;28;20188;-47
2021/10/23 14:04:53;;;;;;;12.93;3.53;;;;;;;;;;5033140;28;20555;-46
2021/10/23 14:07:19;;;;;;;9.43;3.70;;;;;;;;;;5024912;28;20254;-47
2021/10/23 14:09:45;;;;;;;10.20;3.20;;;;;;;;;;5022600;28;20194;-47
2021/10/23 14:12:11;;;;;;;11.73;3.42;;;;;;;;;;5034838;28;20435;-47
2021/10/23 14:14:37;;;;;;;11.23;3.35;;;;;;;;;;5020392;28;20194;-47
2021/10/23 14:17:03;;;;;;;8.55;2.60;;;;;;;;;;5019520;28;20200;-46
2021/10/23 14:19:29;;;;;;;9.20;3.25;;;;;;;;;;5026140;28;20192;-47
2021/10/23 14:21:55;;;;;;;8.23;3.03;;;;;;;;;;5022582;28;20188;-47
2021/10/23 14:24:24;;;;;;;10.23;2.83;;;;;;;;;;5028818;28;20194;-47
2021/10/23 14:26:50;;;;;;;7.57;2.72;;;;;;;;;;5016867;28;20205;-47
2021/10/23 14:29:16;;;;;;;8.85;2.85;;;;;;;;;;5018191;28;20181;-48
2021/10/23 14:31:43;;;;;;;12.68;3.88;;;;;;;;;;5017015;28;20543;-47
2021/10/23 14:34:09;;;;;;;9.95;3.15;;;;;;;;;;5035946;28;20544;-46
2021/10/23 14:36:35;;;;;;;9.75;2.83;;;;;;;;;;5028543;28;20271;-47
2021/10/23 14:39:04;;;;;;;7.95;2.38;;;;;;;;;;5035148;28;20194;-46
2021/10/23 14:41:30;;;;;;;9.40;2.80;;;;;;;;;;5036632;28;20247;-47
2021/10/23 14:43:56;;;;;;;7.97;2.35;;;;;;;;;;5024208;28;20279;-47
2021/10/23 14:46:22;;;;;;;7.00;2.55;;;;;;;;;;5026674;28;20262;-46